Akatsi, Ghana

11:38 PM GMT on May 25, 2015 (GMT +0000)
Tokoin | | Change Station
CLOSE
Current Station
Airport
Location: Lome,
Elevation: 82 ft
Nearby Weather Stations

Elev 82 ft 6.17 °N, 1.25 °E | Updated 38 minutes ago

Partly Cloudy
Partly Cloudy
84 °F
Feels Like 94 °F
N
8
Wind Variable Wind from SSW

Today
High -- | Low -- °F
--% Chance of Precip.
Yesterday
High -- | Low -- °F
Precip. -- in
5:40 AM 6:06 PM
First Quarter, 52% visible
Pressure 29.92 in
Visibility 6.2 miles
Clouds Few 1300 ft
Heat Index 94 °F
Dew Point 77 °F
Humidity 79%
Rainfall 0.00 in
Snow Depth Not available.
UV 0 out of 12
Pollen Not available.
Air Quality Not available.
Flu Activity Not available.
METAR DXXX 252300Z 21007KT 9999 FEW013 29/25 Q1013 NOSIG

More Conditions Fewer Conditions

Pressure 29.92 in
Visibility 6.2 miles
Clouds Few 1300 ft
Heat Index 94 °F
Dew Point 77 °F
Humidity 79%
Rainfall 0.00 in
Snow Depth Not available.
UV 0 out of 12
Pollen Not available.
Air Quality Not available.
Flu Activity Not available.
METAR DXXX 252300Z 21007KT 9999 FEW013 29/25 Q1013 NOSIG

More Conditions Fewer Conditions

10-Day Weather Forecast

Almanac

Astronomy

May. 25, 2015 Rise Set
Actual Time
Civil Twilight
Nautical Twilight
Astronomical Twilight
Moon
Length of Visible Light
Length of Day
Tomorrow will be .
, % of the Moon is Illuminated

Today's Extremes

Country Highs Country Lows

Community

WunderPhotos

Upload Photos

1,824,169 photos uploaded!

WunderBlogs® & News

Nearby

Air Quality

  Air Quality AQ Index Pollutant
Not available.

Snow Depth

Station Depth Elevation

Earthquake Activity

City Distance Mag. Time & Date
Minimum magnitude displayed is 2.5.

Coastal Water Temperatures

Place Temperature

Stations

Nearby Weather Stations

Station Location Temp. Windchill Dew Point Humidity Wind Precip. Elev Updated Type